Terminal Aerodrome Forecast
Issued by NWS Blacksburg, VA

Current Version | Previous Version | Graphics & Text | Print | Product List | Glossary On
Versions: 1 2 3 4 5 6 7 8 9 10 11 12 13 14 15 16 17 18 19 20 21 22 23 24 25 26 27 28 29 30
000
FTUS41 KRNK 240541
TAFBLF
TAF
KBLF 240541Z 2406/2506 30005KT P6SM VCSH SCT013 OVC026
      TEMPO 2407/2409 2SM SHRA BR BKN013
     FM240900 23005KT 4SM BR VCSH OVC020
     FM241300 26004KT P6SM BKN025
     FM241600 28005KT P6SM VCTS BKN040CB
     FM241800 30010KT P6SM BKN050=

USA.gov is the U.S. government's official web portal to all federal, state and local government web resources and services.